Duckwater, Nevada Weather observations

Data are for 10 minute period ending at time listed.
 Day   Time   Solar   Ave.   Ave.  Ave.  Vector  Max.   Baro.   Total    
  of    of     Rad.   Air    Rel.  Wind   Wind   Wind  Press.  Precip.   
Year   Day            Temp.  Hum.  Speed  Dir.   Gust                    
2015   (PST)   w/m2    F      %     mph   deg.    mph    mb.     in.    
-----------------------------------------------------------------------
  26    5:10      0   33.4    71    2.9   328     5.4   999.0   0.00  
  26    5:20      0   31.6    72    4.5   263     7.2   999.0   0.00  
  26    5:30      0   30.1    76    5.8   276     8.3   999.0   0.00  
  26    5:40      0   30.4    76    3.3   302     5.8   999.0   0.00  
  26    5:50      0   31.3    77    5.1   303     8.8   999.0   0.00  
  26    6:00      0   32.1    75    3.7   316     7.7   999.0   0.00  
  26    6:10      0   31.8    75    1.5    62     4.2   999.0   0.00  
  26    6:20      0   31.2    76    2.6   315     5.8   999.0   0.00  
  26    6:30      0   31.6    76    0.7   352     2.9   999.0   0.00  
  26    6:40      0   33.5    72    5.6   344     9.0   999.0   0.00  
  26    6:50      3   33.7    71    4.9   338     8.2   999.0   0.00  
  26    7:00      4   32.8    72    5.8   344     8.3   999.0   0.00  
  26    7:10      8   32.0    73    7.0   343     9.6   999.0   0.00  
  26    7:20      8   31.6    74    5.9   332     9.6   999.0   0.00  
  26    7:30     55   31.7    74    4.9   346     7.2   999.0   0.00  
  26    7:40     97   33.3    71    3.3   306     6.3   999.0   0.00  
  26    7:50    131   35.3    67    4.2   351     6.4   999.0   0.00  
  26    8:00    159   37.1    64    3.9   343     6.4   999.0   0.00  
  26    8:10    188   38.5    61    5.4   351     9.7   999.0   0.00  
  26    8:20    207   40.6    58    5.9   321     8.8   999.0   0.00  
  26    8:30    195   41.8    56    5.7   334     9.3   999.0   0.00  
  26    8:40    251   43.3    52    7.0   352    11.0   999.0   0.00  
  26    8:50    300   44.9    49    6.1   346    10.2   999.0   0.00  
  26    9:00    329   46.6    47    6.3   351     9.9   999.0   0.00  
  26    9:10    347   48.1    44    6.2   352    10.8   999.0   0.00  
  26    9:20    384   49.2    42    7.8   341    10.7   999.0   0.00  
  26    9:30    395   50.2    40    6.4   338     9.0   999.0   0.00  
  26    9:40    417   51.3    38    6.9   344     9.5   999.0   0.00  
  26    9:50    407   52.4    36    6.3   355     8.7   999.0   0.00  
  26   10:00    456   53.7    34    5.5   358     8.1   999.0   0.00  
  26   10:10    445   54.6    33    4.3   358     8.3   999.0   0.00  
  26   10:20    472   55.7    31    2.4    10     5.6   999.0   0.00  
  26   10:30    531   57.6    29    0.5   342     2.1   999.0   0.00  
  26   10:40    528   59.5    26    1.8   144     5.6   999.0   0.00  
  26   10:50    542   60.5    25    2.5   176     8.3   999.0   0.00  
  26   11:00    557   60.1    27    5.1   156     8.6   999.0   0.00  
  26   11:10    522   59.0    28    6.6   146     9.2   999.0   0.00  
  26   11:20    580   57.7    30    8.2   142    11.9   999.0   0.00  
  26   11:30    574   56.8    30    8.1   141    10.9   999.0   0.00  
  26   11:40    581   56.6    31    8.1   142    11.6   999.0   0.00  
  26   11:50    595   56.3    31    8.4   136    11.8   999.0   0.00  
  26   12:00    603   56.8    30    9.3   142    12.6   999.0   0.00  
  26   12:10    468   56.6    31    9.3   138    12.7   999.0   0.00  
  26   12:20    336   55.0    32   10.1   143    14.1   999.0   0.00  
  26   12:30    363   53.6    33   10.5   140    14.1   999.0   0.00  
  26   12:40    377   52.7    35   11.6   130    15.6   999.0   0.00  
  26   12:50    519   53.1    34   10.7   130    15.8   999.0   0.00  
  26   13:00    556   54.0    33   10.3   133    15.1   999.0   0.00  
  26   13:10    489   54.7    32   10.1   138    14.5   999.0   0.00  
  26   13:20    496   55.0    32   11.4   138    16.4   999.0   0.00  
  26   13:30    376   54.2    32   12.1   131    15.9   999.0   0.00  
  26   13:40    339   53.8    32   10.8   132    15.7   999.0   0.00  
  26   13:50    418   54.8    31   10.5   131    14.5   999.0   0.00  
  26   14:00    459   56.3    30   10.6   137    15.1   999.0   0.00  
  26   14:10    444   57.4    28    9.4   139    13.3   999.0   0.00  
  26   14:20    410   58.0    27    9.6   138    13.1   999.0   0.00  
  26   14:30    452   59.3    25    9.7   140    14.7   999.0   0.00  
  26   14:40    421   59.6    25    9.8   128    14.2   999.0   0.00  
  26   14:50    386   60.0    24    9.0   126    12.8   999.0   0.00  
  26   15:00    330   60.4    23    9.5   122    12.7   999.0   0.00  
  26   15:10    142   59.7    23    8.5   129    11.4   999.0   0.00  
  26   15:20    208   60.4    23    7.8   133    11.8   999.0   0.00  
  26   15:30    185   60.4    24    8.6   143    11.9   999.0   0.00  
  26   15:40     78   58.4    26    8.0   147    11.5   999.0   0.00  
  26   15:50     75   56.9    27    7.4   140    10.2   999.0   0.00  
  26   16:00     57   56.2    28    6.2   132     9.7   999.0   0.00  
  26   16:10     47   55.1    30    5.9   133     8.4   999.0   0.00  
  26   16:20     65   55.2    29    7.1   135    10.5   999.0   0.00  
  26   16:30     41   54.6    29    5.1   129     8.2   999.0   0.00  
  26   16:40     28   53.9    30    5.0   114     7.2   999.0   0.00  
  26   16:50      9   52.6    31    3.7   118     5.8   999.0   0.00  
  26   17:00      6   51.5    32    3.1   137     5.5   999.0   0.00  
  26   17:10      1   49.0    36    1.4   274     2.9   999.0   0.00  
  26   17:20      0   48.1    38    0.5   227     2.0   999.0   0.00  
  26   17:30      0   46.4    42    1.7   278     2.3   999.0   0.00  
  26   17:40      0   45.0    45    2.0   335     3.0   999.0   0.00  
  26   17:50      0   45.0    44    1.6   331     2.4   999.0   0.00  
  26   18:00      0   44.6    45    2.4   326     3.6   999.0   0.00  
  26   18:10      0   41.6    47    3.3   332     4.2   999.0   0.00  
  26   18:20      0   41.1    46    2.8   347     4.1   999.0   0.00  
  26   18:30      0   41.3    45    3.0    24     4.3   999.0   0.00  
  26   18:40      0   41.0    49    2.3     9     3.2   999.0   0.00  
  26   18:50      0   40.7    50    0.8   326     2.0   999.0   0.00  
  26   19:00      0   38.4    53    2.7   306     5.8   999.0   0.00  
  26   19:10      0   37.3    54    5.3   348     9.7   999.0   0.00  
  26   19:20      0   39.7    49    3.2    15     4.3   999.0   0.00  
  26   19:30      0   40.8    48    2.2    57     4.5   999.0   0.00  
  26   19:40      0   38.4    52    0.6   306     2.5   999.0   0.00  
  26   19:50      0   37.8    54    1.2    23     2.6   999.0   0.00  
  26   20:00      0   37.9    54    0.4   334     1.6   999.0   0.00  
  26   20:10      0   39.5    50    1.9    33     4.3   999.0   0.00  
  26   20:20      0   39.5    50    2.2   335     4.6   999.0   0.00  
  26   20:30      0   38.6    53    4.3     0     6.2   999.0   0.00  
  26   20:40      0   38.6    52    4.8    24     7.0   999.0   0.00  
  26   20:50      0   39.2    50    3.8    41     5.7   999.0   0.00  
  26   21:00      0   36.1    57    2.5   240     5.1   999.0   0.00  
  26   21:10      0   32.9    62    1.1   149     3.3   999.0   0.00  
  26   21:20      0   33.2    62    1.4    59     4.6   999.0   0.00  
  26   21:30      0   35.0    60    4.0     7     5.3   999.0   0.00  
  26   21:40      0   36.4    56    4.3    18     5.5   999.0   0.00  
  26   21:50      0   38.4    54    3.4    21     5.1   999.0   0.00  
  26   22:00      0   37.7    55    1.7   192     4.2   999.0   0.00  
  26   22:10      0   37.6    55    1.3     6     3.7   999.0   0.00  
  26   22:20      0   38.8    53    4.0    22     8.7   999.0   0.00  
  26   22:30      0   37.6    54    4.2    20     7.2   999.0   0.00  
  26   22:40      0   36.4    56    3.6    11     8.3   999.0   0.00  
  26   22:50      0   36.6    56    1.3   283     3.4   999.0   0.00  
  26   23:00      0   36.5    56    2.9   320     5.1   999.0   0.00  
  26   23:10      0   36.5    56    1.9   300     4.7   999.0   0.00  
  26   23:20      0   36.8    56    1.3   309     5.1   999.0   0.00  
  26   23:30      0   36.0    57    2.2   263     5.5   999.0   0.00  
  26   23:40      0   33.0    63    1.9   317     4.2   999.0   0.00  
  26   23:50      0   32.5    64    1.2   297     3.4   999.0   0.00  
  27    0:00      0   31.7    68    2.3   310     4.0   999.0   0.00  
  27    0:10      0   33.1    67    2.4     7     3.9   999.0   0.00  
  27    0:20      0   34.5    62    3.1   350     5.6   999.0   0.00  
  27    0:30      0   34.8    61    1.2   312     3.1   999.0   0.00  
  27    0:40      0   35.0    62    2.5   347     3.9   999.0   0.00  
  27    0:50      0   36.3    60    2.1    21     5.3   999.0   0.00  
  27    1:00      0   37.0    59    1.5    42     5.3   999.0   0.00  
  27    1:10      0   39.7    53    4.8   117     8.9   999.0   0.00  
  27    1:20      0   40.8    54    5.6   171     9.2   999.0   0.00  
  27    1:30      0   39.0    58    5.9   185    10.6   999.0   0.00  
  27    1:40      0   39.6    58    6.9   145    12.0   999.0   0.00  
  27    1:50      0   38.4    64    2.1   189     4.2   999.0   0.00  
  27    2:00      0   38.1    65    0.1   180     0.9   999.0   0.00  
  27    2:10      0   38.7    63    0.3   179     1.3   999.0   0.00  
  27    2:20      0   39.4    62    2.8    85     5.6   999.0   0.00  
  27    2:30      0   39.4    66    3.6    74     5.3   999.0   0.00  
  27    2:40      0   40.2    68    4.2    90     6.5   999.0   0.00  
  27    2:50      0   41.2    69    5.3   130     8.4   999.0   0.00  
  27    3:00      0   41.5    68    3.8   145     6.6   999.0   0.00  
  27    3:10      0   40.1    70    1.3   209     4.3   999.0   0.00  
  27    3:20      0   39.7    72    0.3   212     1.3   999.0   0.00  
  27    3:30      0   40.2    77    4.2   157     6.4   999.0   0.00  
  27    3:40      0   40.5    78    5.0   148     7.4   999.0   0.00  
  27    3:50      0   39.9    83    4.9   147     7.5   999.0   0.00  
  27    4:00      0   40.0    86    5.7   143     8.6   999.0   0.00  
  27    4:10      0   40.1    87    5.7   144     9.7   999.0   0.00  
  27    4:20      0   40.2    88    6.3   138     8.7   999.0   0.00  
  27    4:30      0   40.2    89    5.4   144     7.9   999.0   0.00  
  27    4:40      0   40.1    89    6.5   134    10.4   999.0   0.00  
  27    4:50      0   40.2    88    5.0   136     7.2   999.0   0.00  
  27    5:00      0   40.0    88    5.1   146     7.7   999.0   0.00  

Return to Duckwater graphs page.


Western Regional Climate Center,wrcc@dri.edu